Time;durP1;ratioP1;P1;durP2;ratioP2;P2;SDS_P1;SDS_P2;PMS_P1;PMS_P2;Temp;Humidity;BMP_temperature;BMP_pressure;BME280_temperature;BME280_humidity;BME280_pressure;Samples;Min_cycle;Max_cycle;Signal;HPM_P1;HPM_P2
2022/12/31 00:00:35;;;;;;;0.10;0.10;;;;;;;8.68;79.30;98552.50;7366359;19;20022;-59
2022/12/31 00:03:01;;;;;;;0.00;0.00;;;;;;;8.67;79.05;98553.41;7366310;19;20034;-57
2022/12/31 00:05:30;;;;;;;0.08;0.08;;;;;;;8.69;79.40;98556.78;7368713;19;20831;-58
2022/12/31 00:07:55;;;;;;;0.00;0.00;;;;;;;8.67;79.08;98553.41;7368195;19;20873;-59
2022/12/31 00:10:21;;;;;;;0.08;0.08;;;;;;;8.66;79.56;98549.94;7368992;19;22255;-59
2022/12/31 00:12:46;;;;;;;0.10;0.10;;;;;;;8.67;79.22;98556.88;7361508;19;20650;-59
2022/12/31 00:15:12;;;;;;;0.10;0.10;;;;;;;8.67;79.48;98553.41;7366506;19;20007;-59
2022/12/31 00:17:37;;;;;;;0.03;0.03;;;;;;;8.66;79.33;98549.94;7366147;19;20010;-59
2022/12/31 00:20:03;;;;;;;0.00;0.00;;;;;;;8.66;79.50;98551.72;7364933;19;20046;-59
2022/12/31 00:22:28;;;;;;;0.10;0.10;;;;;;;8.66;79.27;98565.56;7364751;19;20044;-59
2022/12/31 00:24:53;;;;;;;0.00;0.00;;;;;;;8.63;79.34;98552.72;7360525;19;20011;-59
2022/12/31 00:27:21;;;;;;;0.10;0.10;;;;;;;8.65;79.37;98563.06;7363267;19;20122;-59
2022/12/31 00:29:46;;;;;;;0.00;0.00;;;;;;;8.66;79.09;98560.34;7363087;19;20022;-59
2022/12/31 00:32:12;;;;;;;0.10;0.10;;;;;;;8.66;79.59;98559.53;7366118;19;20022;-59
2022/12/31 00:34:37;;;;;;;0.03;0.03;;;;;;;8.66;79.18;98559.53;7363034;19;20107;-57
2022/12/31 00:37:02;;;;;;;0.00;0.00;;;;;;;8.64;79.63;98556.16;7362639;19;20027;-60
2022/12/31 00:39:28;;;;;;;0.05;0.05;;;;;;;8.63;79.37;98554.50;7362968;19;20014;-57
2022/12/31 00:41:53;;;;;;;0.10;0.10;;;;;;;8.65;79.59;98557.84;7365299;19;20049;-58
2022/12/31 00:44:19;;;;;;;0.00;0.00;;;;;;;8.47;79.40;98531.81;7364862;19;20011;-59
2022/12/31 00:46:45;;;;;;;0.00;0.00;;;;;;;8.65;79.34;98565.66;7361334;19;20034;-59
2022/12/31 00:49:10;;;;;;;0.10;0.10;;;;;;;8.67;79.47;98561.19;7366206;19;20029;-59
2022/12/31 00:51:36;;;;;;;0.00;0.00;;;;;;;8.67;79.73;98566.41;7362077;19;20098;-58
2022/12/31 00:54:02;;;;;;;0.00;0.00;;;;;;;8.70;79.28;98568.88;7363557;19;20013;-59
2022/12/31 00:56:30;;;;;;;0.10;0.10;;;;;;;8.71;79.46;98570.53;7364301;19;20017;-58
2022/12/31 00:58:57;;;;;;;0.00;0.00;;;;;;;8.72;79.46;98574.84;7364635;19;20018;-58
2022/12/31 01:01:24;;;;;;;;;;;;;;;8.77;79.49;98565.06;7362317;19;20006;-59
2022/12/31 01:03:53;;;;;;;0.00;0.00;;;;;;;8.76;79.28;98565.97;7363942;19;19937;-59
2022/12/31 01:06:19;;;;;;;0.00;0.00;;;;;;;8.75;79.40;98579.91;7363354;19;20026;-58
2022/12/31 01:08:47;;;;;;;0.00;0.00;;;;;;;8.69;79.46;98575.00;7363746;19;20014;-59
2022/12/31 01:11:20;;;;;;;0.00;0.00;;;;;;;8.76;79.23;98586.78;7361756;19;20015;-59
2022/12/31 01:13:52;;;;;;;0.00;0.00;;;;;;;8.77;79.29;98588.47;7360706;19;20783;-57
2022/12/31 01:16:20;;;;;;;0.00;0.00;;;;;;;8.78;79.23;98585.81;7362306;19;20018;-59
2022/12/31 01:18:45;;;;;;;0.00;0.00;;;;;;;8.76;79.32;98581.56;7362294;19;20026;-59
2022/12/31 01:21:12;;;;;;;0.00;0.00;;;;;;;8.80;79.28;98583.09;7365672;19;20010;-59
2022/12/31 01:23:38;;;;;;;0.00;0.00;;;;;;;8.79;79.24;98573.63;7363742;19;20018;-59
2022/12/31 01:26:06;;;;;;;0.10;0.10;;;;;;;8.76;79.13;98556.38;7365027;19;20017;-58
2022/12/31 01:28:31;;;;;;;;;;;;;;;8.88;79.24;98575.78;7363030;19;20010;-59
2022/12/31 01:30:57;;;;;;;0.03;0.03;;;;;;;8.86;79.08;98582.81;7365291;19;19982;-59
2022/12/31 01:33:23;;;;;;;0.10;0.10;;;;;;;8.83;79.25;98590.78;7358720;19;20014;-59
2022/12/31 01:35:48;;;;;;;0.10;0.10;;;;;;;8.82;79.41;98586.50;7362965;19;20006;-59
2022/12/31 01:38:14;;;;;;;0.00;0.00;;;;;;;8.78;79.34;98584.97;7360224;19;20010;-59
2022/12/31 01:40:40;;;;;;;0.10;0.10;;;;;;;8.82;79.23;98589.09;7365908;19;20359;-59
2022/12/31 01:43:15;;;;;;;0.08;0.08;;;;;;;8.84;79.28;98589.84;7363855;19;20335;-59
2022/12/31 01:45:42;;;;;;;0.00;0.00;;;;;;;8.82;79.29;98594.31;7363786;19;20010;-59
2022/12/31 01:48:12;;;;;;;0.08;0.08;;;;;;;8.83;79.29;98583.81;7364455;19;20370;-60
2022/12/31 01:50:39;;;;;;;0.10;0.10;;;;;;;8.78;79.31;98575.38;7364534;19;20019;-59
2022/12/31 01:53:07;;;;;;;0.00;0.00;;;;;;;8.84;79.44;98574.25;7362574;19;20649;-59
2022/12/31 01:55:38;;;;;;;0.00;0.00;;;;;;;8.87;79.52;98578.44;7361048;19;20046;-59
2022/12/31 01:58:08;;;;;;;0.00;0.00;;;;;;;8.86;79.61;98563.75;7364413;19;20422;-59
2022/12/31 02:00:33;;;;;;;0.10;0.10;;;;;;;8.87;79.30;98560.22;7364629;19;20011;-59
2022/12/31 02:02:59;;;;;;;0.00;0.00;;;;;;;8.87;79.60;98568.91;7357503;19;20021;-59
2022/12/31 02:05:41;;;;;;;0.00;0.00;;;;;;;8.90;79.27;98558.31;7358319;19;20011;-59
2022/12/31 02:08:07;;;;;;;0.00;0.00;;;;;;;8.87;79.54;98568.91;7363047;19;20013;-58
2022/12/31 02:10:33;;;;;;;0.00;0.00;;;;;;;8.88;79.73;98562.75;7364397;19;20346;-59
2022/12/31 02:12:58;;;;;;;0.10;0.10;;;;;;;8.81;79.81;98551.78;7359754;19;20010;-59
2022/12/31 02:16:01;;;;;;;0.00;0.00;;;;;;;8.93;79.40;98563.38;7362738;19;20038;-58
2022/12/31 02:18:39;;;;;;;0.10;0.10;;;;;;;8.93;79.58;98558.16;7262643;19;2004491;-59
2022/12/31 02:21:22;;;;;;;0.10;0.10;;;;;;;8.91;79.67;98554.78;7363259;19;20563;-60
2022/12/31 02:24:16;;;;;;;0.10;0.10;;;;;;;8.94;79.57;98549.44;7350011;19;20121;-59
2022/12/31 02:26:52;;;;;;;0.10;0.10;;;;;;;8.94;79.16;98544.22;7259277;19;2004351;-59
2022/12/31 02:29:32;;;;;;;0.00;0.00;;;;;;;8.95;79.44;98552.88;7364908;19;20042;-59
2022/12/31 02:32:16;;;;;;;0.10;0.10;;;;;;;8.92;79.25;98540.88;7362819;19;20090;-60
2022/12/31 02:34:57;;;;;;;0.00;0.00;;;;;;;8.94;79.49;98544.22;7360507;19;20036;-59
2022/12/31 02:37:27;;;;;;;0.00;0.00;;;;;;;8.80;79.26;98525.84;7364553;19;20019;-59
2022/12/31 02:39:54;;;;;;;0.00;0.00;;;;;;;8.91;79.46;98549.56;7361849;19;20073;-58
2022/12/31 02:42:19;;;;;;;0.10;0.10;;;;;;;8.89;79.43;98548.81;7364331;19;20624;-59
2022/12/31 02:44:44;;;;;;;0.10;0.10;;;;;;;8.90;79.50;98547.91;7360345;19;20015;-59
2022/12/31 02:47:48;;;;;;;0.00;0.00;;;;;;;8.93;79.55;98558.16;7363024;19;20014;-59
2022/12/31 02:50:20;;;;;;;0.03;0.03;;;;;;;8.91;79.35;98553.94;7261889;19;2004547;-60
2022/12/31 02:53:29;;;;;;;0.10;0.10;;;;;;;8.93;79.24;98557.34;7362953;19;20015;-59
2022/12/31 02:56:18;;;;;;;0.00;0.00;;;;;;;8.91;79.13;98549.56;7256295;19;2004601;-59
2022/12/31 03:04:35;;;;;;;0.00;0.00;;;;;;;8.80;79.32;98544.91;7364728;19;20017;-59
2022/12/31 03:07:01;;;;;;;0.00;0.00;;;;;;;8.86;79.78;98548.97;7359723;19;20007;-56
2022/12/31 03:09:27;;;;;;;0.10;0.10;;;;;;;8.87;79.72;98555.00;7360372;19;20687;-59
2022/12/31 03:14:36;;;;;;;0.10;0.10;;;;;;;8.86;79.39;98551.56;7357941;19;20822;-58
2022/12/31 03:17:02;;;;;;;0.00;0.00;;;;;;;8.86;79.79;98556.78;7359553;19;20094;-59
2022/12/31 03:22:27;;;;;;;0.00;0.00;;;;;;;8.86;79.63;98543.75;7360606;19;20030;-58
2022/12/31 03:27:43;;;;;;;0.00;0.00;;;;;;;8.87;79.77;98529.84;7361955;19;20041;-59
2022/12/31 03:30:09;;;;;;;0.10;0.10;;;;;;;8.87;79.58;98527.25;7361094;19;20023;-60
2022/12/31 03:32:35;;;;;;;0.00;0.00;;;;;;;8.87;79.79;98532.47;7360089;19;20097;-59
2022/12/31 03:35:00;;;;;;;0.00;0.00;;;;;;;8.86;79.67;98541.16;7360094;19;20014;-59
2022/12/31 03:37:25;;;;;;;0.00;0.00;;;;;;;8.87;79.53;98537.66;7361596;19;20018;-59
2022/12/31 03:39:51;;;;;;;0.10;0.10;;;;;;;8.83;79.23;98541.34;7357631;19;20018;-58
2022/12/31 03:42:16;;;;;;;0.00;0.00;;;;;;;8.82;79.36;98545.69;7363646;19;20026;-59
2022/12/31 03:44:42;;;;;;;0.00;0.00;;;;;;;8.86;79.63;98556.78;7355695;19;20026;-59
2022/12/31 03:47:07;;;;;;;0.10;0.10;;;;;;;8.87;79.62;98553.28;7360607;19;20622;-59
2022/12/31 03:49:32;;;;;;;0.00;0.00;;;;;;;8.86;79.73;98556.78;7352839;19;22203;-59
2022/12/31 03:51:58;;;;;;;0.00;0.00;;;;;;;8.87;79.50;98562.81;7360889;19;20086;-58
2022/12/31 03:54:23;;;;;;;0.10;0.10;;;;;;;8.86;79.29;98554.16;7360419;19;20006;-59
2022/12/31 03:56:49;;;;;;;0.10;0.10;;;;;;;8.87;79.39;98557.63;7357177;19;20010;-58
2022/12/31 03:59:14;;;;;;;0.00;0.00;;;;;;;8.87;79.60;98547.19;7360598;19;20014;-58
2022/12/31 04:01:40;;;;;;;0.10;0.10;;;;;;;8.87;79.30;98545.47;7358010;19;20018;-59
2022/12/31 04:04:05;;;;;;;0.10;0.10;;;;;;;8.70;79.62;98509.03;7342587;19;20633;-59
2022/12/31 04:06:30;;;;;;;0.00;0.00;;;;;;;8.88;79.62;98538.50;7360876;19;20122;-59
2022/12/31 04:08:56;;;;;;;0.00;0.00;;;;;;;8.87;79.56;98527.25;7355717;19;20006;-59
2022/12/31 04:11:21;;;;;;;0.10;0.10;;;;;;;8.89;79.26;98527.16;7359989;19;20006;-59
2022/12/31 04:13:46;;;;;;;0.00;0.00;;;;;;;8.86;79.39;98530.75;7364280;19;20086;-57
2022/12/31 04:16:12;;;;;;;0.10;0.10;;;;;;;8.89;79.33;98548.00;7366935;19;21104;-58
2022/12/31 04:18:37;;;;;;;0.10;0.10;;;;;;;8.89;79.64;98546.22;7359326;19;20011;-59
2022/12/31 04:21:04;;;;;;;0.10;0.10;;;;;;;8.90;79.19;98534.88;7357342;19;20047;-59
2022/12/31 04:23:30;;;;;;;0.00;0.00;;;;;;;8.90;79.66;98537.50;7368103;19;20733;-60
2022/12/31 04:25:55;;;;;;;0.10;0.10;;;;;;;8.89;79.41;98529.78;7367883;19;20029;-58
2022/12/31 04:28:20;;;;;;;0.10;0.10;;;;;;;8.91;79.27;98526.16;7362570;19;20010;-58
2022/12/31 04:30:46;;;;;;;0.10;0.10;;;;;;;8.92;79.51;98534.81;7366494;19;20073;-59
2022/12/31 04:33:11;;;;;;;0.10;0.10;;;;;;;8.91;79.47;98539.16;7366662;19;20030;-59
2022/12/31 04:35:37;;;;;;;0.10;0.10;;;;;;;8.93;79.38;98537.34;7366727;19;20070;-59
2022/12/31 04:38:02;;;;;;;0.10;0.10;;;;;;;8.93;79.11;98529.53;7364620;19;20022;-59
2022/12/31 04:40:27;;;;;;;0.10;0.10;;;;;;;8.92;79.11;98521.78;7367684;19;20006;-59
2022/12/31 04:42:53;;;;;;;0.10;0.10;;;;;;;8.93;79.09;98537.34;7363258;19;20034;-60
2022/12/31 04:45:18;;;;;;;0.08;0.08;;;;;;;8.93;79.13;98542.56;7366218;19;20601;-59
2022/12/31 04:47:44;;;;;;;0.00;0.00;;;;;;;8.94;79.06;98543.38;7366532;19;20442;-59
2022/12/31 04:50:09;;;;;;;0.03;0.03;;;;;;;8.93;79.09;98550.38;7366592;19;20089;-59
2022/12/31 04:52:35;;;;;;;0.00;0.00;;;;;;;8.93;79.11;98552.97;7361559;19;20013;-59
2022/12/31 04:55:00;;;;;;;0.00;0.00;;;;;;;8.92;79.35;98556.50;7366546;19;19999;-59
2022/12/31 04:57:26;;;;;;;0.10;0.10;;;;;;;8.93;79.24;98560.78;7364246;19;20010;-59
2022/12/31 04:59:51;;;;;;;0.00;0.00;;;;;;;8.93;79.52;98567.75;7367083;19;20006;-59
2022/12/31 05:02:16;;;;;;;0.10;0.10;;;;;;;8.93;79.49;98568.59;7362456;19;20670;-59
2022/12/31 05:04:42;;;;;;;0.00;0.00;;;;;;;8.92;79.49;98564.31;7367879;19;20010;-59
2022/12/31 05:07:07;;;;;;;0.00;0.00;;;;;;;8.93;79.17;98567.75;7366185;19;20110;-59
2022/12/31 05:09:33;;;;;;;0.00;0.00;;;;;;;8.93;79.15;98573.78;7363805;19;20038;-59
2022/12/31 05:11:58;;;;;;;0.10;0.10;;;;;;;8.93;79.49;98565.97;7368031;19;20010;-59
2022/12/31 05:14:24;;;;;;;0.08;0.08;;;;;;;8.80;79.15;98546.69;7365686;19;20070;-59
2022/12/31 05:16:49;;;;;;;0.08;0.08;;;;;;;8.93;79.29;98576.38;7369098;19;20011;-59
2022/12/31 05:19:15;;;;;;;0.00;0.00;;;;;;;8.92;79.32;98579.91;7363457;19;20011;-59
2022/12/31 05:21:40;;;;;;;0.10;0.10;;;;;;;8.92;79.46;98587.72;7365822;19;20090;-58
2022/12/31 05:24:06;;;;;;;0.10;0.10;;;;;;;8.90;79.62;98589.53;7365055;19;20039;-59
2022/12/31 05:26:31;;;;;;;0.10;0.10;;;;;;;8.91;79.60;98587.78;7366035;19;20026;-58
2022/12/31 05:28:59;;;;;;;0.03;0.03;;;;;;;8.90;79.65;98589.53;7367059;19;20656;-59
2022/12/31 05:31:25;;;;;;;0.00;0.00;;;;;;;8.91;79.35;98593.00;7365076;19;21181;-58
2022/12/31 05:33:51;;;;;;;0.10;0.10;;;;;;;8.91;79.29;98596.44;7364998;19;20040;-59
2022/12/31 05:36:17;;;;;;;0.00;0.00;;;;;;;8.90;79.23;98610.38;7362656;19;20018;-58
2022/12/31 05:38:42;;;;;;;0.03;0.03;;;;;;;8.90;79.29;98605.16;7366669;19;20474;-59
2022/12/31 05:41:08;;;;;;;0.00;0.00;;;;;;;8.89;79.44;98613.91;7364279;19;20388;-59
2022/12/31 05:43:33;;;;;;;0.10;0.10;;;;;;;8.80;79.60;98594.34;7366641;19;20354;-59
2022/12/31 05:46:00;;;;;;;0.10;0.10;;;;;;;8.90;79.36;98610.38;7364502;19;21251;-58
2022/12/31 05:48:26;;;;;;;0.00;0.00;;;;;;;8.89;79.42;98613.91;7366148;19;20580;-60
2022/12/31 05:50:52;;;;;;;0.10;0.10;;;;;;;8.89;79.13;98616.50;7364245;19;22347;-59
2022/12/31 05:53:17;;;;;;;0.10;0.10;;;;;;;8.90;79.21;98625.16;7363867;19;20002;-58
2022/12/31 05:55:45;;;;;;;0.00;0.00;;;;;;;8.91;79.71;98632.88;7365910;19;20010;-59
2022/12/31 05:58:10;;;;;;;0.05;0.05;;;;;;;8.90;79.54;98633.78;7363823;19;20010;-59
2022/12/31 06:00:35;;;;;;;0.00;0.00;;;;;;;8.90;79.24;98641.59;7363075;19;25501;-59
2022/12/31 06:03:01;;;;;;;0.00;0.00;;;;;;;8.90;79.21;98635.56;7364059;19;20023;-59
2022/12/31 06:05:26;;;;;;;0.00;0.00;;;;;;;8.90;79.24;98620.78;7364764;19;21067;-59
2022/12/31 06:07:51;;;;;;;0.00;0.00;;;;;;;8.90;79.24;98625.97;7363310;19;20015;-59
2022/12/31 06:10:17;;;;;;;0.00;0.00;;;;;;;8.89;79.26;98613.91;7365322;19;20010;-60
2022/12/31 06:12:42;;;;;;;0.00;0.00;;;;;;;8.90;79.65;98610.38;7361737;19;20360;-60
2022/12/31 06:15:09;;;;;;;0.05;0.05;;;;;;;8.90;79.46;98610.38;7364176;19;19999;-58
2022/12/31 06:17:34;;;;;;;0.08;0.08;;;;;;;8.90;79.16;98614.72;7364101;19;20018;-57
2022/12/31 06:19:59;;;;;;;0.10;0.10;;;;;;;8.89;79.28;98623.47;7364243;19;20044;-59
2022/12/31 06:22:25;;;;;;;0.00;0.00;;;;;;;8.89;79.16;98621.69;7360345;19;20003;-59
2022/12/31 06:24:50;;;;;;;0.00;0.00;;;;;;;8.88;79.26;98627.84;7365768;19;20030;-59
2022/12/31 06:27:16;;;;;;;0.08;0.08;;;;;;;8.87;79.03;98641.78;7363345;19;20038;-59
2022/12/31 06:29:41;;;;;;;0.10;0.10;;;;;;;8.85;79.44;98633.19;7363041;19;20006;-59
2022/12/31 06:32:07;;;;;;;0.10;0.10;;;;;;;8.85;79.33;98630.56;7363965;19;20036;-59
2022/12/31 06:34:32;;;;;;;0.00;0.00;;;;;;;8.77;79.55;98619.72;7364151;19;20036;-59
2022/12/31 06:36:58;;;;;;;0.10;0.10;;;;;;;8.82;79.25;98633.34;7362491;19;20010;-59
2022/12/31 06:39:23;;;;;;;0.00;0.00;;;;;;;8.79;79.46;98625.66;7363537;19;20029;-59
2022/12/31 06:41:49;;;;;;;0.10;0.10;;;;;;;8.84;79.15;98641.91;7362141;19;20714;-58
2022/12/31 06:44:14;;;;;;;0.10;0.10;;;;;;;8.81;79.29;98631.63;7362299;19;20018;-58
2022/12/31 06:46:39;;;;;;;0.00;0.00;;;;;;;8.82;79.51;98634.19;7359254;19;20007;-59
2022/12/31 06:49:05;;;;;;;0.03;0.03;;;;;;;8.80;79.13;98632.56;7362469;19;20014;-58
2022/12/31 06:51:31;;;;;;;0.00;0.00;;;;;;;8.75;79.69;98642.34;7360955;19;20003;-59
2022/12/31 06:53:56;;;;;;;0.10;0.10;;;;;;;8.83;79.63;98653.25;7362269;19;20014;-59
2022/12/31 06:56:25;;;;;;;0.10;0.10;;;;;;;8.83;79.44;98661.88;7363742;19;20014;-59
2022/12/31 06:58:51;;;;;;;0.10;0.10;;;;;;;8.83;79.42;98666.25;7352612;19;20014;-59
2022/12/31 07:01:28;;;;;;;0.00;0.00;;;;;;;8.74;79.17;98651.06;7364107;19;20021;-59
2022/12/31 07:03:53;;;;;;;0.10;0.10;;;;;;;8.83;79.26;98671.47;7359141;19;20010;-59
2022/12/31 07:06:45;;;;;;;0.10;0.10;;;;;;;8.87;79.21;98675.59;7361447;19;20013;-59
2022/12/31 07:09:39;;;;;;;0.10;0.10;;;;;;;8.87;79.19;98686.00;7257351;19;2004286;-59
2022/12/31 07:12:30;;;;;;;0.00;0.00;;;;;;;8.84;79.34;98676.56;7260893;19;2004007;-59
2022/12/31 07:15:04;;;;;;;0.00;0.00;;;;;;;8.83;79.62;98666.25;7359883;19;20002;-60
2022/12/31 07:17:38;;;;;;;0.00;0.00;;;;;;;8.81;79.34;98653.28;7362874;19;20002;-60
2022/12/31 07:20:14;;;;;;;0.00;0.00;;;;;;;8.80;79.38;98642.97;7358125;19;20006;-59
2022/12/31 07:22:39;;;;;;;0.00;0.00;;;;;;;8.77;79.64;98640.53;7362110;19;20011;-59
2022/12/31 07:25:06;;;;;;;0.05;0.05;;;;;;;8.76;79.56;98651.84;7357890;19;22556;-59
2022/12/31 07:27:31;;;;;;;0.00;0.00;;;;;;;8.76;79.54;98644.03;7361627;19;20007;-58
2022/12/31 07:30:11;;;;;;;0.00;0.00;;;;;;;8.75;79.53;98647.56;7359346;19;20044;-59
2022/12/31 07:33:01;;;;;;;0.10;0.10;;;;;;;8.79;79.84;98649.09;7361356;19;20011;-59
2022/12/31 07:35:48;;;;;;;0.00;0.00;;;;;;;8.79;79.80;98664.72;7361034;19;20011;-59
2022/12/31 07:38:41;;;;;;;0.00;0.00;;;;;;;8.79;79.46;98664.72;7357132;19;20035;-59
2022/12/31 07:41:56;;;;;;;0.10;0.10;;;;;;;8.80;79.76;98666.38;7260293;19;2004440;-59
2022/12/31 07:44:37;;;;;;;0.00;0.00;;;;;;;8.79;79.65;98664.72;7259160;19;2004227;-59
2022/12/31 07:47:07;;;;;;;0.00;0.00;;;;;;;8.79;79.43;98669.91;7359702;19;20038;-59
2022/12/31 07:49:33;;;;;;;0.10;0.10;;;;;;;8.77;79.78;98676.97;7366440;19;20012;-59
2022/12/31 07:51:59;;;;;;;0.00;0.00;;;;;;;8.79;79.68;98672.50;7368627;19;20027;-59
2022/12/31 07:54:24;;;;;;;0.10;0.10;;;;;;;8.78;79.85;98676.88;7367511;19;20019;-59
2022/12/31 07:56:50;;;;;;;0.10;0.10;;;;;;;8.79;79.32;98685.53;7361520;19;20008;-59
2022/12/31 07:59:27;;;;;;;0.05;0.05;;;;;;;8.82;79.64;98691.44;7365667;19;20003;-59
2022/12/31 08:02:02;;;;;;;0.10;0.10;;;;;;;8.84;79.86;98686.16;7365621;19;20474;-59
2022/12/31 08:04:44;;;;;;;0.10;0.10;;;;;;;8.86;79.87;98680.88;7362076;19;20068;-58
2022/12/31 08:07:33;;;;;;;0.00;0.00;;;;;;;8.88;79.63;98660.81;7366776;19;20040;-60
2022/12/31 08:10:09;;;;;;;0.00;0.00;;;;;;;8.89;79.63;98662.50;7366419;19;20018;-58
2022/12/31 08:12:39;;;;;;;0.10;0.10;;;;;;;8.87;79.29;98673.00;7366586;19;20018;-59
2022/12/31 08:15:13;;;;;;;0.00;0.00;;;;;;;8.91;79.35;98663.25;7366900;19;20010;-59
2022/12/31 08:17:39;;;;;;;0.10;0.10;;;;;;;8.90;79.76;98682.41;7363026;19;20021;-58
2022/12/31 08:20:05;;;;;;;0.00;0.00;;;;;;;8.90;79.54;98675.44;7368292;19;23155;-59
2022/12/31 08:22:43;;;;;;;0.00;0.00;;;;;;;8.94;79.28;98666.56;7365415;19;20680;-59
2022/12/31 08:25:20;;;;;;;0.08;0.08;;;;;;;8.94;79.61;98669.16;7361794;19;20133;-59
2022/12/31 08:28:01;;;;;;;0.10;0.10;;;;;;;8.95;79.36;98659.59;7363461;19;20023;-59
2022/12/31 08:30:40;;;;;;;0.00;0.00;;;;;;;8.97;79.36;98658.63;7366743;19;20020;-59
2022/12/31 08:33:08;;;;;;;0.03;0.03;;;;;;;8.97;79.53;98674.25;7367169;19;20487;-59
2022/12/31 08:35:56;;;;;;;0.00;0.00;;;;;;;8.98;79.48;98675.91;7362880;19;21814;-59
2022/12/31 08:38:52;;;;;;;0.00;0.00;;;;;;;8.98;79.59;98665.50;7365144;19;20010;-59
2022/12/31 08:41:27;;;;;;;0.00;0.00;;;;;;;8.96;79.56;98666.50;7262610;19;2004518;-58
2022/12/31 08:43:58;;;;;;;0.00;0.00;;;;;;;8.95;79.20;98675.22;7352500;19;20018;-59
2022/12/31 08:46:33;;;;;;;0.08;0.08;;;;;;;8.97;79.08;98676.84;7366461;19;20573;-59
2022/12/31 08:48:58;;;;;;;0.10;0.10;;;;;;;8.85;79.08;98654.00;7363813;19;20002;-59
2022/12/31 08:51:25;;;;;;;0.00;0.00;;;;;;;8.91;79.15;98677.13;7363450;19;20022;-59
2022/12/31 08:53:52;;;;;;;0.00;0.00;;;;;;;8.93;79.40;98685.72;7363114;19;20817;-58
2022/12/31 08:56:24;;;;;;;0.10;0.10;;;;;;;8.87;79.32;98682.53;7365974;19;20846;-59
2022/12/31 08:59:11;;;;;;;0.08;0.08;;;;;;;8.95;79.28;98678.66;7359118;19;20049;-60
2022/12/31 09:01:48;;;;;;;0.00;0.00;;;;;;;8.97;79.43;98687.25;7364500;19;20555;-59
2022/12/31 09:04:31;;;;;;;0.00;0.00;;;;;;;8.97;79.34;98689.88;7363070;19;20087;-59
2022/12/31 09:07:01;;;;;;;0.10;0.10;;;;;;;8.96;79.46;98688.16;7362322;19;20028;-59
2022/12/31 09:09:29;;;;;;;0.10;0.10;;;;;;;8.94;79.45;98674.38;7365334;19;20010;-59
2022/12/31 09:12:15;;;;;;;0.00;0.00;;;;;;;8.97;79.21;98662.97;7364265;19;20042;-58
2022/12/31 09:14:53;;;;;;;0.00;0.00;;;;;;;8.97;79.05;98674.25;7364839;19;20003;-59
2022/12/31 09:17:37;;;;;;;0.10;0.10;;;;;;;8.94;79.06;98671.78;7364478;19;20013;-59
2022/12/31 09:20:04;;;;;;;0.00;0.00;;;;;;;8.93;79.37;98683.13;7364993;19;20018;-59
2022/12/31 09:22:30;;;;;;;0.00;0.00;;;;;;;8.81;79.12;98663.69;7363168;19;20018;-58
2022/12/31 09:24:56;;;;;;;0.00;0.00;;;;;;;8.95;79.30;98686.47;7363077;19;20010;-59
2022/12/31 09:27:43;;;;;;;0.10;0.10;;;;;;;8.98;79.07;98681.13;7362422;19;20025;-58
2022/12/31 09:30:15;;;;;;;0.03;0.03;;;;;;;8.93;79.22;98683.13;7363493;19;20081;-59
2022/12/31 09:33:02;;;;;;;0.10;0.10;;;;;;;8.98;79.28;98686.34;7362466;19;20007;-59
2022/12/31 09:35:27;;;;;;;0.00;0.00;;;;;;;8.98;79.16;98672.47;7360814;19;20041;-59
2022/12/31 09:38:01;;;;;;;0.10;0.10;;;;;;;8.99;79.14;98677.59;7363020;19;21227;-59
2022/12/31 09:40:57;;;;;;;0.00;0.00;;;;;;;9.01;79.22;98678.34;7360242;19;20022;-59
2022/12/31 09:44:04;;;;;;;0.00;0.00;;;;;;;9.02;79.07;98677.47;7259994;19;2004876;-59
2022/12/31 09:47:07;;;;;;;0.10;0.10;;;;;;;9.03;79.48;98676.53;7258940;19;2004297;-59
2022/12/31 09:49:51;;;;;;;0.00;0.00;;;;;;;9.03;79.11;98671.34;7260248;19;2004202;-59
2022/12/31 09:52:56;;;;;;;0.00;0.00;;;;;;;9.05;79.04;98669.50;7361544;19;20027;-59
2022/12/31 09:55:58;;;;;;;0.05;0.05;;;;;;;9.02;79.14;98674.88;7256236;19;2004592;-59
2022/12/31 09:58:53;;;;;;;0.10;0.10;;;;;;;9.03;79.18;98688.72;7259383;19;2004084;-59
2022/12/31 10:01:36;;;;;;;0.00;0.00;;;;;;;9.04;79.17;98700.81;7261305;19;2004447;-59
2022/12/31 10:04:39;;;;;;;0.10;0.10;;;;;;;9.04;79.46;98701.66;7360765;19;20323;-59
2022/12/31 10:07:23;;;;;;;0.10;0.10;;;;;;;9.02;79.26;98697.41;7256453;19;2004983;-59
2022/12/31 10:09:51;;;;;;;0.05;0.05;;;;;;;9.02;79.64;98711.31;7358958;19;20006;-59
2022/12/31 10:12:56;;;;;;;0.00;0.00;;;;;;;9.05;79.17;98713.75;7361812;19;20017;-59
2022/12/31 10:15:52;;;;;;;0.00;0.00;;;;;;;9.06;79.63;98706.78;7262965;19;2004470;-60
2022/12/31 10:18:37;;;;;;;0.10;0.10;;;;;;;9.08;79.29;98712.78;7258288;19;2004533;-59
2022/12/31 10:21:36;;;;;;;0.10;0.10;;;;;;;9.08;79.56;98724.03;7358147;19;20007;-58
2022/12/31 10:24:35;;;;;;;0.10;0.10;;;;;;;9.10;79.17;98722.19;7255668;19;2004149;-57
2022/12/31 10:27:42;;;;;;;0.10;0.10;;;;;;;9.13;79.44;98722.97;7241072;19;2004622;-58
2022/12/31 10:30:22;;;;;;;0.10;0.10;;;;;;;9.13;79.18;98725.56;7238348;19;2004314;-59
2022/12/31 10:33:17;;;;;;;0.03;0.03;;;;;;;9.18;79.61;98739.22;7355960;19;20006;-57
2022/12/31 10:36:04;;;;;;;0.00;0.00;;;;;;;9.19;79.18;98740.88;7252855;19;2004603;-58
2022/12/31 10:38:45;;;;;;;0.00;0.00;;;;;;;9.21;79.30;98744.25;7256016;19;2004527;-59
2022/12/31 10:41:35;;;;;;;0.00;0.00;;;;;;;9.13;79.04;98725.56;7361079;19;20382;-59
2022/12/31 10:44:19;;;;;;;0.00;0.00;;;;;;;9.25;79.09;98737.97;7364539;19;20343;-59
2022/12/31 10:46:49;;;;;;;0.10;0.10;;;;;;;9.26;79.24;98731.84;7358214;19;20034;-59
2022/12/31 10:49:52;;;;;;;0.00;0.00;;;;;;;9.29;79.09;98726.50;7357873;19;20014;-59
2022/12/31 10:52:21;;;;;;;0.00;0.00;;;;;;;9.29;79.18;98710.88;7258037;19;2004600;-58
2022/12/31 10:55:05;;;;;;;0.10;0.10;;;;;;;9.29;78.94;98716.09;7356441;19;20030;-58
2022/12/31 10:58:14;;;;;;;0.05;0.05;;;;;;;9.35;79.03;98707.97;7354813;19;20066;-56
2022/12/31 11:01:00;;;;;;;0.10;0.10;;;;;;;9.35;79.31;98707.97;7259936;19;2004284;-58
2022/12/31 11:04:00;;;;;;;0.10;0.10;;;;;;;9.38;79.09;98699.13;7358802;19;20018;-59
2022/12/31 11:06:34;;;;;;;0.10;0.10;;;;;;;9.38;78.99;98700.00;7258268;19;2004257;-59
2022/12/31 11:09:05;;;;;;;0.10;0.10;;;;;;;9.38;79.31;98684.38;7360453;19;20114;-59
2022/12/31 11:11:36;;;;;;;0.00;0.00;;;;;;;9.37;79.00;98690.47;7358226;19;20017;-59
2022/12/31 11:14:20;;;;;;;0.10;0.10;;;;;;;9.42;79.19;98700.69;7359728;19;20911;-59
2022/12/31 11:17:03;;;;;;;0.03;0.03;;;;;;;9.43;79.13;98698.03;7361679;19;20780;-58
2022/12/31 11:19:45;;;;;;;0.00;0.00;;;;;;;9.46;78.91;98686.59;7362271;19;20022;-59
2022/12/31 11:22:26;;;;;;;0.10;0.10;;;;;;;9.48;79.23;98683.00;7359914;19;20588;-58
2022/12/31 11:24:59;;;;;;;0.00;0.00;;;;;;;9.48;79.22;98680.41;7356795;19;20014;-59
2022/12/31 11:28:02;;;;;;;0.03;0.03;;;;;;;9.54;79.43;98668.81;7360669;19;20010;-59
2022/12/31 11:30:47;;;;;;;0.10;0.10;;;;;;;9.59;78.96;98662.44;7258884;19;2004419;-58
2022/12/31 11:33:37;;;;;;;0.10;0.10;;;;;;;9.60;78.99;98658.06;7361690;19;20028;-59
2022/12/31 11:36:15;;;;;;;0.08;0.08;;;;;;;9.65;79.32;98670.88;7358319;19;20014;-58
2022/12/31 11:38:49;;;;;;;0.00;0.00;;;;;;;9.62;78.92;98662.25;7362337;19;20025;-60
2022/12/31 11:41:33;;;;;;;0.00;0.00;;;;;;;9.69;79.01;98662.81;7358503;19;20010;-59
2022/12/31 11:44:18;;;;;;;0.00;0.00;;;;;;;9.74;79.21;98649.56;7357447;19;20027;-58
2022/12/31 11:46:58;;;;;;;0.05;0.05;;;;;;;9.76;78.88;98655.50;7357228;19;20378;-59
2022/12/31 11:49:42;;;;;;;0.10;0.10;;;;;;;9.78;79.30;98640.63;7355427;19;20015;-59
2022/12/31 11:52:28;;;;;;;0.00;0.00;;;;;;;9.80;78.68;98633.59;7355819;19;20013;-59
2022/12/31 11:55:13;;;;;;;0.00;0.00;;;;;;;9.83;79.06;98617.75;7358834;19;20018;-59
2022/12/31 11:57:45;;;;;;;0.00;0.00;;;;;;;9.90;79.11;98619.13;7351596;19;20030;-59
2022/12/31 12:00:17;;;;;;;0.10;0.10;;;;;;;9.98;79.03;98627.38;7355071;19;20584;-59
2022/12/31 12:02:47;;;;;;;0.10;0.10;;;;;;;10.03;78.79;98627.97;7356247;19;20015;-58
2022/12/31 12:05:17;;;;;;;0.00;0.00;;;;;;;10.10;78.66;98624.13;7358273;19;21058;-59
2022/12/31 12:07:43;;;;;;;0.10;0.10;;;;;;;10.16;78.82;98612.53;7353615;19;20102;-59
2022/12/31 12:10:26;;;;;;;0.00;0.00;;;;;;;10.27;78.80;98602.38;7355060;19;20062;-60
2022/12/31 12:12:54;;;;;;;0.03;0.03;;;;;;;10.31;78.33;98605.66;7357112;19;20031;-56
2022/12/31 12:15:30;;;;;;;0.10;0.10;;;;;;;10.33;78.35;98596.81;7357461;19;20615;-58
2022/12/31 12:18:05;;;;;;;0.10;0.10;;;;;;;10.45;78.49;98610.97;7358348;19;20744;-58
2022/12/31 12:20:35;;;;;;;0.10;0.10;;;;;;;10.53;78.33;98616.56;7346538;19;20010;-57
2022/12/31 12:23:12;;;;;;;0.00;0.00;;;;;;;10.47;78.03;98595.22;7355395;19;20070;-58